sensor_id;sensor_type;location;lat;lon;timestamp;P1;durP1;ratioP1;P2;durP2;ratioP2
3249;SDS011;1637;42.020;23.992;2023-12-14T00:01:54;53.63;;;21.87;;
3249;SDS011;1637;42.020;23.992;2023-12-14T00:04:22;56.37;;;23.23;;
3249;SDS011;1637;42.020;23.992;2023-12-14T00:06:49;54.43;;;22.23;;
3249;SDS011;1637;42.020;23.992;2023-12-14T00:09:16;62.80;;;25.27;;
3249;SDS011;1637;42.020;23.992;2023-12-14T00:11:43;69.47;;;26.53;;
3249;SDS011;1637;42.020;23.992;2023-12-14T00:14:09;64.73;;;26.97;;
3249;SDS011;1637;42.020;23.992;2023-12-14T00:16:36;70.53;;;31.17;;
3249;SDS011;1637;42.020;23.992;2023-12-14T00:19:03;88.07;;;31.97;;
3249;SDS011;1637;42.020;23.992;2023-12-14T00:21:31;52.70;;;21.57;;
3249;SDS011;1637;42.020;23.992;2023-12-14T00:23:58;39.83;;;19.57;;
3249;SDS011;1637;42.020;23.992;2023-12-14T00:26:25;37.57;;;19.53;;
3249;SDS011;1637;42.020;23.992;2023-12-14T00:28:52;49.63;;;21.90;;
3249;SDS011;1637;42.020;23.992;2023-12-14T00:31:18;55.43;;;25.90;;
3249;SDS011;1637;42.020;23.992;2023-12-14T00:33:45;61.30;;;26.70;;
3249;SDS011;1637;42.020;23.992;2023-12-14T00:36:17;33.23;;;14.50;;
3249;SDS011;1637;42.020;23.992;2023-12-14T00:38:45;31.07;;;14.37;;
3249;SDS011;1637;42.020;23.992;2023-12-14T00:41:12;34.30;;;15.57;;
3249;SDS011;1637;42.020;23.992;2023-12-14T00:43:39;50.40;;;22.50;;
3249;SDS011;1637;42.020;23.992;2023-12-14T00:46:07;53.57;;;22.17;;
3249;SDS011;1637;42.020;23.992;2023-12-14T00:48:33;53.97;;;22.53;;
3249;SDS011;1637;42.020;23.992;2023-12-14T00:50:59;47.90;;;23.03;;
3249;SDS011;1637;42.020;23.992;2023-12-14T00:53:26;57.33;;;24.80;;
3249;SDS011;1637;42.020;23.992;2023-12-14T00:55:54;47.50;;;23.53;;
3249;SDS011;1637;42.020;23.992;2023-12-14T00:58:21;46.37;;;23.07;;
3249;SDS011;1637;42.020;23.992;2023-12-14T01:00:48;44.93;;;21.27;;
3249;SDS011;1637;42.020;23.992;2023-12-14T01:03:14;42.87;;;21.23;;
3249;SDS011;1637;42.020;23.992;2023-12-14T01:05:41;42.40;;;19.50;;
3249;SDS011;1637;42.020;23.992;2023-12-14T01:08:08;41.83;;;19.53;;
3249;SDS011;1637;42.020;23.992;2023-12-14T01:10:35;49.03;;;22.07;;
3249;SDS011;1637;42.020;23.992;2023-12-14T01:13:03;56.73;;;22.83;;
3249;SDS011;1637;42.020;23.992;2023-12-14T01:15:30;98.20;;;34.77;;
3249;SDS011;1637;42.020;23.992;2023-12-14T01:17:57;78.17;;;30.53;;
3249;SDS011;1637;42.020;23.992;2023-12-14T01:20:23;55.27;;;23.20;;
3249;SDS011;1637;42.020;23.992;2023-12-14T01:22:50;58.07;;;24.40;;
3249;SDS011;1637;42.020;23.992;2023-12-14T01:25:17;49.40;;;20.10;;
3249;SDS011;1637;42.020;23.992;2023-12-14T01:27:44;39.90;;;19.50;;
3249;SDS011;1637;42.020;23.992;2023-12-14T01:30:12;46.37;;;21.10;;
3249;SDS011;1637;42.020;23.992;2023-12-14T01:32:39;49.83;;;22.67;;
3249;SDS011;1637;42.020;23.992;2023-12-14T01:35:06;52.50;;;22.20;;
3249;SDS011;1637;42.020;23.992;2023-12-14T01:37:33;30.40;;;14.90;;
3249;SDS011;1637;42.020;23.992;2023-12-14T01:40:00;30.53;;;11.80;;
3249;SDS011;1637;42.020;23.992;2023-12-14T01:42:27;16.90;;;7.60;;
3249;SDS011;1637;42.020;23.992;2023-12-14T01:44:54;13.63;;;6.90;;
3249;SDS011;1637;42.020;23.992;2023-12-14T01:47:22;13.10;;;6.50;;
3249;SDS011;1637;42.020;23.992;2023-12-14T01:49:49;12.43;;;6.80;;
3249;SDS011;1637;42.020;23.992;2023-12-14T01:52:15;36.10;;;12.73;;
3249;SDS011;1637;42.020;23.992;2023-12-14T01:54:42;71.53;;;21.90;;
3249;SDS011;1637;42.020;23.992;2023-12-14T01:57:09;17.70;;;8.30;;
3249;SDS011;1637;42.020;23.992;2023-12-14T01:59:36;13.17;;;6.37;;
3249;SDS011;1637;42.020;23.992;2023-12-14T02:02:03;40.27;;;16.00;;
3249;SDS011;1637;42.020;23.992;2023-12-14T02:04:32;20.43;;;9.60;;
3249;SDS011;1637;42.020;23.992;2023-12-14T02:06:58;32.33;;;12.57;;
3249;SDS011;1637;42.020;23.992;2023-12-14T02:09:25;17.80;;;8.70;;
3249;SDS011;1637;42.020;23.992;2023-12-14T02:11:52;32.40;;;15.73;;
3249;SDS011;1637;42.020;23.992;2023-12-14T02:14:21;31.13;;;13.53;;
3249;SDS011;1637;42.020;23.992;2023-12-14T02:16:48;23.17;;;11.17;;
3249;SDS011;1637;42.020;23.992;2023-12-14T02:19:15;18.57;;;10.43;;
3249;SDS011;1637;42.020;23.992;2023-12-14T02:21:43;23.57;;;9.87;;
3249;SDS011;1637;42.020;23.992;2023-12-14T02:24:11;22.67;;;11.53;;
3249;SDS011;1637;42.020;23.992;2023-12-14T02:26:38;30.50;;;14.10;;
3249;SDS011;1637;42.020;23.992;2023-12-14T02:29:04;37.40;;;16.23;;
3249;SDS011;1637;42.020;23.992;2023-12-14T02:31:31;37.60;;;13.10;;
3249;SDS011;1637;42.020;23.992;2023-12-14T02:33:58;25.53;;;10.50;;
3249;SDS011;1637;42.020;23.992;2023-12-14T02:36:25;16.83;;;7.30;;
3249;SDS011;1637;42.020;23.992;2023-12-14T02:38:51;12.70;;;4.93;;
3249;SDS011;1637;42.020;23.992;2023-12-14T02:41:19;17.87;;;8.23;;
3249;SDS011;1637;42.020;23.992;2023-12-14T02:43:46;24.17;;;10.67;;
3249;SDS011;1637;42.020;23.992;2023-12-14T02:46:13;9.13;;;5.00;;
3249;SDS011;1637;42.020;23.992;2023-12-14T02:48:40;11.73;;;4.90;;
3249;SDS011;1637;42.020;23.992;2023-12-14T02:51:11;25.57;;;10.40;;
3249;SDS011;1637;42.020;23.992;2023-12-14T02:53:39;35.70;;;11.33;;
3249;SDS011;1637;42.020;23.992;2023-12-14T02:56:06;6.10;;;4.30;;
3249;SDS011;1637;42.020;23.992;2023-12-14T02:58:35;15.70;;;6.50;;
3249;SDS011;1637;42.020;23.992;2023-12-14T03:01:02;83.17;;;29.80;;
3249;SDS011;1637;42.020;23.992;2023-12-14T03:03:29;11.30;;;6.80;;
3249;SDS011;1637;42.020;23.992;2023-12-14T03:05:56;13.23;;;8.60;;
3249;SDS011;1637;42.020;23.992;2023-12-14T03:08:22;19.03;;;9.80;;
3249;SDS011;1637;42.020;23.992;2023-12-14T03:10:49;25.37;;;7.53;;
3249;SDS011;1637;42.020;23.992;2023-12-14T03:13:16;24.27;;;10.20;;
3249;SDS011;1637;42.020;23.992;2023-12-14T03:15:44;22.60;;;9.80;;
3249;SDS011;1637;42.020;23.992;2023-12-14T03:18:11;22.37;;;9.30;;
3249;SDS011;1637;42.020;23.992;2023-12-14T03:20:39;10.50;;;5.67;;
3249;SDS011;1637;42.020;23.992;2023-12-14T03:23:06;24.73;;;10.50;;
3249;SDS011;1637;42.020;23.992;2023-12-14T03:25:33;19.77;;;9.83;;
3249;SDS011;1637;42.020;23.992;2023-12-14T03:28:00;31.03;;;12.57;;
3249;SDS011;1637;42.020;23.992;2023-12-14T03:30:27;52.90;;;29.60;;
3249;SDS011;1637;42.020;23.992;2023-12-14T03:32:55;31.50;;;14.33;;
3249;SDS011;1637;42.020;23.992;2023-12-14T03:35:21;24.00;;;8.17;;
3249;SDS011;1637;42.020;23.992;2023-12-14T03:37:48;21.53;;;8.70;;
3249;SDS011;1637;42.020;23.992;2023-12-14T03:40:15;25.13;;;10.23;;
3249;SDS011;1637;42.020;23.992;2023-12-14T03:42:42;10.07;;;4.13;;
3249;SDS011;1637;42.020;23.992;2023-12-14T03:45:09;9.40;;;4.83;;
3249;SDS011;1637;42.020;23.992;2023-12-14T03:47:36;8.43;;;4.50;;
3249;SDS011;1637;42.020;23.992;2023-12-14T03:50:05;19.50;;;11.93;;
3249;SDS011;1637;42.020;23.992;2023-12-14T03:52:33;9.50;;;5.23;;
3249;SDS011;1637;42.020;23.992;2023-12-14T03:55:00;6.87;;;3.97;;
3249;SDS011;1637;42.020;23.992;2023-12-14T03:57:27;10.43;;;4.60;;
3249;SDS011;1637;42.020;23.992;2023-12-14T03:59:53;32.23;;;18.80;;
3249;SDS011;1637;42.020;23.992;2023-12-14T04:02:20;87.57;;;39.50;;
3249;SDS011;1637;42.020;23.992;2023-12-14T04:04:47;90.30;;;48.47;;
3249;SDS011;1637;42.020;23.992;2023-12-14T04:07:15;24.03;;;11.80;;
3249;SDS011;1637;42.020;23.992;2023-12-14T04:09:43;47.67;;;25.23;;
3249;SDS011;1637;42.020;23.992;2023-12-14T04:12:10;58.33;;;21.83;;
3249;SDS011;1637;42.020;23.992;2023-12-14T04:14:37;27.77;;;17.80;;
3249;SDS011;1637;42.020;23.992;2023-12-14T04:17:04;34.87;;;16.00;;
3249;SDS011;1637;42.020;23.992;2023-12-14T04:19:30;25.93;;;13.00;;
3249;SDS011;1637;42.020;23.992;2023-12-14T04:21:57;51.73;;;27.83;;
3249;SDS011;1637;42.020;23.992;2023-12-14T04:24:25;47.23;;;19.67;;
3249;SDS011;1637;42.020;23.992;2023-12-14T04:26:52;40.53;;;15.03;;
3249;SDS011;1637;42.020;23.992;2023-12-14T04:29:19;31.13;;;15.10;;
3249;SDS011;1637;42.020;23.992;2023-12-14T04:31:46;31.43;;;18.03;;
3249;SDS011;1637;42.020;23.992;2023-12-14T04:34:13;31.70;;;17.70;;
3249;SDS011;1637;42.020;23.992;2023-12-14T04:36:41;24.90;;;13.20;;
3249;SDS011;1637;42.020;23.992;2023-12-14T04:39:07;24.07;;;10.37;;
3249;SDS011;1637;42.020;23.992;2023-12-14T04:41:36;35.23;;;21.60;;
3249;SDS011;1637;42.020;23.992;2023-12-14T04:44:03;21.30;;;12.90;;
3249;SDS011;1637;42.020;23.992;2023-12-14T04:46:30;22.47;;;11.33;;
3249;SDS011;1637;42.020;23.992;2023-12-14T04:48:56;28.50;;;14.27;;
3249;SDS011;1637;42.020;23.992;2023-12-14T04:51:23;14.30;;;8.30;;
3249;SDS011;1637;42.020;23.992;2023-12-14T04:53:51;67.13;;;46.20;;
3249;SDS011;1637;42.020;23.992;2023-12-14T04:56:18;17.00;;;11.13;;
3249;SDS011;1637;42.020;23.992;2023-12-14T04:58:46;12.90;;;7.90;;
3249;SDS011;1637;42.020;23.992;2023-12-14T05:01:13;14.60;;;8.63;;
3249;SDS011;1637;42.020;23.992;2023-12-14T05:03:39;29.43;;;15.63;;
3249;SDS011;1637;42.020;23.992;2023-12-14T05:06:06;45.87;;;22.07;;
3249;SDS011;1637;42.020;23.992;2023-12-14T05:08:33;14.50;;;6.53;;
3249;SDS011;1637;42.020;23.992;2023-12-14T05:11:00;17.83;;;10.30;;
3249;SDS011;1637;42.020;23.992;2023-12-14T05:13:27;9.50;;;5.67;;
3249;SDS011;1637;42.020;23.992;2023-12-14T05:15:56;9.13;;;4.83;;
3249;SDS011;1637;42.020;23.992;2023-12-14T05:18:23;27.63;;;16.10;;
3249;SDS011;1637;42.020;23.992;2023-12-14T05:20:50;79.03;;;43.40;;
3249;SDS011;1637;42.020;23.992;2023-12-14T05:23:17;19.10;;;10.47;;
3249;SDS011;1637;42.020;23.992;2023-12-14T05:25:44;144.90;;;73.27;;
3249;SDS011;1637;42.020;23.992;2023-12-14T05:28:11;43.77;;;21.33;;
3249;SDS011;1637;42.020;23.992;2023-12-14T05:30:38;19.03;;;10.43;;
3249;SDS011;1637;42.020;23.992;2023-12-14T05:33:06;24.70;;;11.30;;
3249;SDS011;1637;42.020;23.992;2023-12-14T05:35:33;55.77;;;28.17;;
3249;SDS011;1637;42.020;23.992;2023-12-14T05:38:00;88.10;;;42.90;;
3249;SDS011;1637;42.020;23.992;2023-12-14T05:40:26;35.27;;;19.00;;
3249;SDS011;1637;42.020;23.992;2023-12-14T05:42:53;24.60;;;17.73;;
3249;SDS011;1637;42.020;23.992;2023-12-14T05:45:20;20.83;;;11.17;;
3249;SDS011;1637;42.020;23.992;2023-12-14T05:47:47;9.77;;;5.77;;
3249;SDS011;1637;42.020;23.992;2023-12-14T05:50:15;41.97;;;18.27;;
3249;SDS011;1637;42.020;23.992;2023-12-14T05:52:42;66.63;;;36.50;;
3249;SDS011;1637;42.020;23.992;2023-12-14T05:55:10;226.40;;;108.27;;
3249;SDS011;1637;42.020;23.992;2023-12-14T05:57:37;23.57;;;11.53;;
3249;SDS011;1637;42.020;23.992;2023-12-14T06:00:05;31.37;;;12.70;;
3249;SDS011;1637;42.020;23.992;2023-12-14T06:02:33;21.13;;;8.70;;
3249;SDS011;1637;42.020;23.992;2023-12-14T06:05:02;10.50;;;7.07;;
3249;SDS011;1637;42.020;23.992;2023-12-14T06:07:30;42.03;;;16.40;;
3249;SDS011;1637;42.020;23.992;2023-12-14T06:09:57;34.33;;;16.43;;
3249;SDS011;1637;42.020;23.992;2023-12-14T06:12:24;22.47;;;9.70;;
3249;SDS011;1637;42.020;23.992;2023-12-14T06:14:51;20.77;;;9.80;;
3249;SDS011;1637;42.020;23.992;2023-12-14T06:17:18;30.17;;;14.77;;
3249;SDS011;1637;42.020;23.992;2023-12-14T06:19:45;20.50;;;14.30;;
3249;SDS011;1637;42.020;23.992;2023-12-14T06:22:12;35.00;;;17.67;;
3249;SDS011;1637;42.020;23.992;2023-12-14T06:24:40;61.73;;;34.80;;
3249;SDS011;1637;42.020;23.992;2023-12-14T06:27:07;44.70;;;28.13;;
3249;SDS011;1637;42.020;23.992;2023-12-14T06:29:33;41.60;;;19.23;;
3249;SDS011;1637;42.020;23.992;2023-12-14T06:32:00;52.13;;;22.20;;
3249;SDS011;1637;42.020;23.992;2023-12-14T06:34:27;53.23;;;26.87;;
3249;SDS011;1637;42.020;23.992;2023-12-14T06:36:54;61.80;;;29.57;;
3249;SDS011;1637;42.020;23.992;2023-12-14T06:39:23;78.90;;;40.60;;
3249;SDS011;1637;42.020;23.992;2023-12-14T06:41:53;359.30;;;146.97;;
3249;SDS011;1637;42.020;23.992;2023-12-14T06:44:19;115.73;;;56.60;;
3249;SDS011;1637;42.020;23.992;2023-12-14T06:46:46;74.20;;;38.60;;
3249;SDS011;1637;42.020;23.992;2023-12-14T06:49:13;113.97;;;49.97;;
3249;SDS011;1637;42.020;23.992;2023-12-14T06:51:40;111.37;;;54.97;;
3249;SDS011;1637;42.020;23.992;2023-12-14T06:54:07;127.00;;;61.90;;
3249;SDS011;1637;42.020;23.992;2023-12-14T06:56:35;175.00;;;73.47;;
3249;SDS011;1637;42.020;23.992;2023-12-14T06:59:04;181.50;;;70.37;;
3249;SDS011;1637;42.020;23.992;2023-12-14T07:01:31;168.20;;;66.43;;
3249;SDS011;1637;42.020;23.992;2023-12-14T07:03:57;126.00;;;57.53;;
3249;SDS011;1637;42.020;23.992;2023-12-14T07:06:24;133.73;;;58.23;;
3249;SDS011;1637;42.020;23.992;2023-12-14T07:08:51;138.50;;;63.90;;
3249;SDS011;1637;42.020;23.992;2023-12-14T07:11:18;129.27;;;56.53;;
3249;SDS011;1637;42.020;23.992;2023-12-14T07:13:44;119.73;;;55.80;;
3249;SDS011;1637;42.020;23.992;2023-12-14T07:16:13;121.63;;;59.70;;
3249;SDS011;1637;42.020;23.992;2023-12-14T07:18:42;136.37;;;64.87;;
3249;SDS011;1637;42.020;23.992;2023-12-14T07:21:09;170.13;;;81.93;;
3249;SDS011;1637;42.020;23.992;2023-12-14T07:23:36;203.03;;;87.97;;
3249;SDS011;1637;42.020;23.992;2023-12-14T07:26:03;220.27;;;97.93;;
3249;SDS011;1637;42.020;23.992;2023-12-14T07:28:30;186.63;;;91.97;;
3249;SDS011;1637;42.020;23.992;2023-12-14T07:30:57;191.90;;;91.60;;
3249;SDS011;1637;42.020;23.992;2023-12-14T07:33:25;139.67;;;68.87;;
3249;SDS011;1637;42.020;23.992;2023-12-14T07:35:52;216.20;;;95.37;;
3249;SDS011;1637;42.020;23.992;2023-12-14T07:38:19;550.80;;;271.47;;
3249;SDS011;1637;42.020;23.992;2023-12-14T07:40:46;194.87;;;80.60;;
3249;SDS011;1637;42.020;23.992;2023-12-14T07:43:15;93.37;;;43.10;;
3249;SDS011;1637;42.020;23.992;2023-12-14T07:45:42;94.57;;;43.70;;
3249;SDS011;1637;42.020;23.992;2023-12-14T07:48:08;102.10;;;47.70;;
3249;SDS011;1637;42.020;23.992;2023-12-14T07:50:37;115.27;;;52.07;;
3249;SDS011;1637;42.020;23.992;2023-12-14T07:53:03;109.80;;;50.70;;
3249;SDS011;1637;42.020;23.992;2023-12-14T07:55:30;101.37;;;47.30;;
3249;SDS011;1637;42.020;23.992;2023-12-14T07:57:57;78.03;;;37.93;;
3249;SDS011;1637;42.020;23.992;2023-12-14T08:00:24;64.67;;;33.50;;
3249;SDS011;1637;42.020;23.992;2023-12-14T08:02:50;77.93;;;40.57;;
3249;SDS011;1637;42.020;23.992;2023-12-14T08:05:17;90.50;;;49.67;;
3249;SDS011;1637;42.020;23.992;2023-12-14T08:07:45;161.73;;;64.37;;
3249;SDS011;1637;42.020;23.992;2023-12-14T08:10:13;135.20;;;60.10;;
3249;SDS011;1637;42.020;23.992;2023-12-14T08:12:40;107.57;;;55.13;;
3249;SDS011;1637;42.020;23.992;2023-12-14T08:15:07;120.57;;;58.90;;
3249;SDS011;1637;42.020;23.992;2023-12-14T08:17:35;128.80;;;64.03;;
3249;SDS011;1637;42.020;23.992;2023-12-14T08:20:02;121.53;;;59.17;;
3249;SDS011;1637;42.020;23.992;2023-12-14T08:22:33;135.60;;;71.37;;
3249;SDS011;1637;42.020;23.992;2023-12-14T08:25:02;112.53;;;60.80;;
3249;SDS011;1637;42.020;23.992;2023-12-14T08:27:29;110.63;;;64.40;;
3249;SDS011;1637;42.020;23.992;2023-12-14T08:29:56;120.87;;;66.60;;
3249;SDS011;1637;42.020;23.992;2023-12-14T08:32:23;133.40;;;91.57;;
3249;SDS011;1637;42.020;23.992;2023-12-14T08:34:49;104.20;;;63.00;;
3249;SDS011;1637;42.020;23.992;2023-12-14T08:37:18;89.33;;;55.50;;
3249;SDS011;1637;42.020;23.992;2023-12-14T08:39:44;93.13;;;41.87;;
3249;SDS011;1637;42.020;23.992;2023-12-14T08:42:13;74.67;;;39.47;;
3249;SDS011;1637;42.020;23.992;2023-12-14T08:44:40;77.23;;;42.50;;
3249;SDS011;1637;42.020;23.992;2023-12-14T08:47:07;71.03;;;41.10;;
3249;SDS011;1637;42.020;23.992;2023-12-14T08:49:34;93.30;;;52.10;;
3249;SDS011;1637;42.020;23.992;2023-12-14T08:52:01;130.10;;;70.90;;
3249;SDS011;1637;42.020;23.992;2023-12-14T08:54:29;133.97;;;64.63;;
3249;SDS011;1637;42.020;23.992;2023-12-14T08:56:56;126.67;;;68.27;;
3249;SDS011;1637;42.020;23.992;2023-12-14T08:59:25;129.20;;;65.10;;
3249;SDS011;1637;42.020;23.992;2023-12-14T09:01:51;102.63;;;57.37;;
3249;SDS011;1637;42.020;23.992;2023-12-14T09:04:20;129.30;;;62.30;;
3249;SDS011;1637;42.020;23.992;2023-12-14T09:06:47;116.67;;;53.13;;
3249;SDS011;1637;42.020;23.992;2023-12-14T09:09:14;121.67;;;51.93;;
3249;SDS011;1637;42.020;23.992;2023-12-14T09:11:40;117.93;;;62.20;;
3249;SDS011;1637;42.020;23.992;2023-12-14T09:14:07;118.50;;;61.40;;
3249;SDS011;1637;42.020;23.992;2023-12-14T09:16:35;75.67;;;39.50;;
3249;SDS011;1637;42.020;23.992;2023-12-14T09:19:02;72.60;;;37.63;;
3249;SDS011;1637;42.020;23.992;2023-12-14T09:21:29;65.03;;;33.80;;
3249;SDS011;1637;42.020;23.992;2023-12-14T09:23:56;43.30;;;24.17;;
3249;SDS011;1637;42.020;23.992;2023-12-14T09:26:22;63.80;;;28.60;;
3249;SDS011;1637;42.020;23.992;2023-12-14T09:28:49;100.50;;;67.47;;
3249;SDS011;1637;42.020;23.992;2023-12-14T09:31:16;63.90;;;44.00;;
3249;SDS011;1637;42.020;23.992;2023-12-14T09:33:44;30.83;;;16.23;;
3249;SDS011;1637;42.020;23.992;2023-12-14T09:36:11;30.57;;;19.00;;
3249;SDS011;1637;42.020;23.992;2023-12-14T09:38:38;44.80;;;25.20;;
3249;SDS011;1637;42.020;23.992;2023-12-14T09:41:04;34.20;;;25.27;;
3249;SDS011;1637;42.020;23.992;2023-12-14T09:43:32;49.47;;;21.83;;
3249;SDS011;1637;42.020;23.992;2023-12-14T09:45:59;23.70;;;12.97;;
3249;SDS011;1637;42.020;23.992;2023-12-14T09:48:28;24.80;;;10.67;;
3249;SDS011;1637;42.020;23.992;2023-12-14T09:50:57;28.63;;;10.37;;
3249;SDS011;1637;42.020;23.992;2023-12-14T09:53:26;17.60;;;9.40;;
3249;SDS011;1637;42.020;23.992;2023-12-14T09:55:53;40.37;;;35.03;;
3249;SDS011;1637;42.020;23.992;2023-12-14T09:58:19;20.40;;;14.53;;
3249;SDS011;1637;42.020;23.992;2023-12-14T10:00:46;14.83;;;7.70;;
3249;SDS011;1637;42.020;23.992;2023-12-14T10:03:22;35.03;;;18.37;;
3249;SDS011;1637;42.020;23.992;2023-12-14T10:05:52;29.70;;;16.90;;
3249;SDS011;1637;42.020;23.992;2023-12-14T10:08:21;37.90;;;21.67;;
3249;SDS011;1637;42.020;23.992;2023-12-14T10:10:49;37.70;;;20.77;;
3249;SDS011;1637;42.020;23.992;2023-12-14T10:13:18;118.90;;;64.03;;
3249;SDS011;1637;42.020;23.992;2023-12-14T10:15:45;78.13;;;32.30;;
3249;SDS011;1637;42.020;23.992;2023-12-14T10:18:19;62.67;;;30.50;;
3249;SDS011;1637;42.020;23.992;2023-12-14T10:20:48;55.73;;;26.93;;
3249;SDS011;1637;42.020;23.992;2023-12-14T10:23:15;51.27;;;25.33;;
3249;SDS011;1637;42.020;23.992;2023-12-14T10:25:44;69.00;;;33.83;;
3249;SDS011;1637;42.020;23.992;2023-12-14T10:28:11;41.00;;;16.47;;
3249;SDS011;1637;42.020;23.992;2023-12-14T10:30:38;42.33;;;19.70;;
3249;SDS011;1637;42.020;23.992;2023-12-14T10:33:05;35.07;;;15.30;;
3249;SDS011;1637;42.020;23.992;2023-12-14T10:35:32;39.90;;;12.00;;
3249;SDS011;1637;42.020;23.992;2023-12-14T10:38:02;21.37;;;8.77;;
3249;SDS011;1637;42.020;23.992;2023-12-14T10:40:30;24.23;;;8.20;;
3249;SDS011;1637;42.020;23.992;2023-12-14T10:42:59;41.03;;;18.30;;
3249;SDS011;1637;42.020;23.992;2023-12-14T10:45:31;32.63;;;17.73;;
3249;SDS011;1637;42.020;23.992;2023-12-14T10:48:00;42.03;;;9.90;;
3249;SDS011;1637;42.020;23.992;2023-12-14T10:50:29;24.90;;;8.90;;
3249;SDS011;1637;42.020;23.992;2023-12-14T10:52:56;45.13;;;10.30;;
3249;SDS011;1637;42.020;23.992;2023-12-14T10:55:25;32.57;;;12.43;;
3249;SDS011;1637;42.020;23.992;2023-12-14T10:57:59;22.50;;;7.90;;
3249;SDS011;1637;42.020;23.992;2023-12-14T11:00:26;59.90;;;11.03;;
3249;SDS011;1637;42.020;23.992;2023-12-14T11:02:54;40.60;;;13.70;;
3249;SDS011;1637;42.020;23.992;2023-12-14T11:05:22;59.90;;;32.40;;
3249;SDS011;1637;42.020;23.992;2023-12-14T11:07:54;22.07;;;11.20;;
3249;SDS011;1637;42.020;23.992;2023-12-14T11:10:26;94.47;;;32.33;;
3249;SDS011;1637;42.020;23.992;2023-12-14T11:12:55;16.10;;;8.33;;
3249;SDS011;1637;42.020;23.992;2023-12-14T11:15:25;38.10;;;22.73;;
3249;SDS011;1637;42.020;23.992;2023-12-14T11:20:50;35.13;;;14.10;;
3249;SDS011;1637;42.020;23.992;2023-12-14T11:23:25;101.03;;;44.30;;
3249;SDS011;1637;42.020;23.992;2023-12-14T11:25:57;78.93;;;33.07;;
3249;SDS011;1637;42.020;23.992;2023-12-14T11:28:28;132.70;;;54.60;;
3249;SDS011;1637;42.020;23.992;2023-12-14T11:30:56;15.03;;;7.20;;
3249;SDS011;1637;42.020;23.992;2023-12-14T11:33:23;28.43;;;14.60;;
3249;SDS011;1637;42.020;23.992;2023-12-14T11:35:52;19.13;;;10.40;;
3249;SDS011;1637;42.020;23.992;2023-12-14T11:38:19;16.73;;;7.70;;
3249;SDS011;1637;42.020;23.992;2023-12-14T11:40:47;31.33;;;12.67;;
3249;SDS011;1637;42.020;23.992;2023-12-14T11:43:15;10.50;;;4.50;;
3249;SDS011;1637;42.020;23.992;2023-12-14T11:45:45;32.87;;;7.40;;
3249;SDS011;1637;42.020;23.992;2023-12-14T11:48:13;25.47;;;9.23;;
3249;SDS011;1637;42.020;23.992;2023-12-14T11:50:41;17.43;;;7.20;;
3249;SDS011;1637;42.020;23.992;2023-12-14T11:53:09;19.43;;;9.47;;
3249;SDS011;1637;42.020;23.992;2023-12-14T11:55:37;15.40;;;5.93;;
3249;SDS011;1637;42.020;23.992;2023-12-14T11:58:06;30.37;;;10.30;;
3249;SDS011;1637;42.020;23.992;2023-12-14T12:00:33;23.57;;;8.80;;
3249;SDS011;1637;42.020;23.992;2023-12-14T12:03:09;18.93;;;7.10;;
3249;SDS011;1637;42.020;23.992;2023-12-14T12:05:39;25.00;;;8.03;;
3249;SDS011;1637;42.020;23.992;2023-12-14T12:08:07;24.70;;;7.87;;
3249;SDS011;1637;42.020;23.992;2023-12-14T12:10:35;9.23;;;5.83;;
3249;SDS011;1637;42.020;23.992;2023-12-14T12:13:02;26.73;;;8.00;;
3249;SDS011;1637;42.020;23.992;2023-12-14T12:15:31;14.70;;;5.17;;
3249;SDS011;1637;42.020;23.992;2023-12-14T12:18:01;11.20;;;5.67;;
3249;SDS011;1637;42.020;23.992;2023-12-14T12:20:29;30.47;;;9.87;;
3249;SDS011;1637;42.020;23.992;2023-12-14T12:22:57;20.77;;;9.33;;
3249;SDS011;1637;42.020;23.992;2023-12-14T12:25:23;39.47;;;14.60;;
3249;SDS011;1637;42.020;23.992;2023-12-14T12:27:52;34.13;;;14.27;;
3249;SDS011;1637;42.020;23.992;2023-12-14T12:30:19;35.33;;;16.50;;
3249;SDS011;1637;42.020;23.992;2023-12-14T12:32:46;38.60;;;19.67;;
3249;SDS011;1637;42.020;23.992;2023-12-14T12:35:12;44.50;;;23.03;;
3249;SDS011;1637;42.020;23.992;2023-12-14T12:37:39;20.60;;;11.83;;
3249;SDS011;1637;42.020;23.992;2023-12-14T12:40:08;16.53;;;8.03;;
3249;SDS011;1637;42.020;23.992;2023-12-14T12:42:35;11.87;;;6.73;;
3249;SDS011;1637;42.020;23.992;2023-12-14T12:45:02;14.73;;;7.60;;
3249;SDS011;1637;42.020;23.992;2023-12-14T12:47:30;33.83;;;17.07;;
3249;SDS011;1637;42.020;23.992;2023-12-14T12:49:57;38.70;;;10.90;;
3249;SDS011;1637;42.020;23.992;2023-12-14T12:52:24;12.10;;;5.93;;
3249;SDS011;1637;42.020;23.992;2023-12-14T12:54:51;28.67;;;8.33;;
3249;SDS011;1637;42.020;23.992;2023-12-14T12:57:19;35.73;;;13.70;;
3249;SDS011;1637;42.020;23.992;2023-12-14T12:59:46;18.57;;;10.90;;
3249;SDS011;1637;42.020;23.992;2023-12-14T13:02:13;18.33;;;7.27;;
3249;SDS011;1637;42.020;23.992;2023-12-14T13:04:42;17.60;;;7.23;;
3249;SDS011;1637;42.020;23.992;2023-12-14T13:07:09;22.93;;;10.30;;
3249;SDS011;1637;42.020;23.992;2023-12-14T13:09:37;20.20;;;11.63;;
3249;SDS011;1637;42.020;23.992;2023-12-14T13:12:04;25.97;;;10.30;;
3249;SDS011;1637;42.020;23.992;2023-12-14T13:14:32;10.87;;;5.77;;
3249;SDS011;1637;42.020;23.992;2023-12-14T13:16:59;17.07;;;9.10;;
3249;SDS011;1637;42.020;23.992;2023-12-14T13:19:26;23.97;;;7.60;;
3249;SDS011;1637;42.020;23.992;2023-12-14T13:21:54;13.53;;;7.73;;
3249;SDS011;1637;42.020;23.992;2023-12-14T13:24:24;21.20;;;6.57;;
3249;SDS011;1637;42.020;23.992;2023-12-14T13:26:51;24.93;;;12.23;;
3249;SDS011;1637;42.020;23.992;2023-12-14T13:29:17;24.03;;;10.67;;
3249;SDS011;1637;42.020;23.992;2023-12-14T13:31:47;31.30;;;11.80;;
3249;SDS011;1637;42.020;23.992;2023-12-14T13:34:14;30.07;;;14.10;;
3249;SDS011;1637;42.020;23.992;2023-12-14T13:36:41;19.47;;;8.40;;
3249;SDS011;1637;42.020;23.992;2023-12-14T13:39:08;21.13;;;8.90;;
3249;SDS011;1637;42.020;23.992;2023-12-14T13:41:36;41.73;;;15.00;;
3249;SDS011;1637;42.020;23.992;2023-12-14T13:44:03;27.47;;;11.97;;
3249;SDS011;1637;42.020;23.992;2023-12-14T13:46:30;73.33;;;30.70;;
3249;SDS011;1637;42.020;23.992;2023-12-14T13:48:58;37.30;;;17.37;;
3249;SDS011;1637;42.020;23.992;2023-12-14T13:51:25;41.83;;;15.43;;
3249;SDS011;1637;42.020;23.992;2023-12-14T13:53:52;37.57;;;17.80;;
3249;SDS011;1637;42.020;23.992;2023-12-14T13:56:19;39.13;;;20.10;;
3249;SDS011;1637;42.020;23.992;2023-12-14T13:58:46;33.37;;;14.23;;
3249;SDS011;1637;42.020;23.992;2023-12-14T14:01:12;38.70;;;16.77;;
3249;SDS011;1637;42.020;23.992;2023-12-14T14:03:40;47.00;;;19.07;;
3249;SDS011;1637;42.020;23.992;2023-12-14T14:06:09;38.83;;;19.03;;
3249;SDS011;1637;42.020;23.992;2023-12-14T14:08:36;38.53;;;17.60;;
3249;SDS011;1637;42.020;23.992;2023-12-14T14:11:03;35.77;;;16.37;;
3249;SDS011;1637;42.020;23.992;2023-12-14T14:13:30;59.47;;;23.57;;
3249;SDS011;1637;42.020;23.992;2023-12-14T14:15:57;19.43;;;8.90;;
3249;SDS011;1637;42.020;23.992;2023-12-14T14:18:24;22.87;;;9.10;;
3249;SDS011;1637;42.020;23.992;2023-12-14T14:20:51;23.57;;;9.53;;
3249;SDS011;1637;42.020;23.992;2023-12-14T14:23:19;19.00;;;8.60;;
3249;SDS011;1637;42.020;23.992;2023-12-14T14:25:46;22.33;;;8.70;;
3249;SDS011;1637;42.020;23.992;2023-12-14T14:28:13;23.50;;;8.60;;
3249;SDS011;1637;42.020;23.992;2023-12-14T14:30:40;20.83;;;8.97;;
3249;SDS011;1637;42.020;23.992;2023-12-14T14:33:07;25.10;;;9.33;;
3249;SDS011;1637;42.020;23.992;2023-12-14T14:35:34;30.77;;;9.07;;
3249;SDS011;1637;42.020;23.992;2023-12-14T14:38:02;24.83;;;11.93;;
3249;SDS011;1637;42.020;23.992;2023-12-14T14:40:30;71.67;;;33.47;;